Time,TemperatureF,DewpointF,PressureIn,WindDirection,WindDirectionDegrees,WindSpeedMPH,WindSpeedGustMPH,Humidity,HourlyPrecipIn,Conditions,Clouds,dailyrainin,SoftwareType,DateUTC
2013-01-08 00:00:00,53.6,52.5,30.01,North,0,1.0,2.0,96,0.04,CL,CL,0.00,WeatherDisplay:10.37,2013-01-08 06:00:00,
2013-01-08 00:04:00,44.6,40.4,30.07,NE,45,1.1,0.0,85,0.00,CLR,,0.00,WeatherDisplay:10.37,2013-01-08 06:04:00,
2013-01-08 00:09:00,44.1,39.8,30.07,North,0,1.1,0.0,85,0.00,CLR,,0.00,WeatherDisplay:10.37,2013-01-08 06:09:00,
2013-01-08 00:15:00,44.1,39.8,30.06,North,0,1.1,0.0,85,0.00,CLR,,0.00,WeatherDisplay:10.37,2013-01-08 06:15:00,
2013-01-08 00:20:00,43.9,40.0,30.06,NW,315,1.1,0.0,86,0.00,CLR,,0.00,WeatherDisplay:10.37,2013-01-08 06:20:00,
2013-01-08 00:25:00,43.9,40.3,30.06,North,0,1.1,1.1,87,0.00,CLR,,0.00,WeatherDisplay:10.37,2013-01-08 06:25:00,
2013-01-08 00:30:00,44.1,40.4,30.06,North,0,1.6,1.6,87,0.00,CLR,,0.00,WeatherDisplay:10.37,2013-01-08 06:30:00,
2013-01-08 00:35:00,44.1,40.7,30.06,North,0,1.1,0.0,88,0.00,CLR,,0.00,WeatherDisplay:10.37,2013-01-08 06:35:00,
2013-01-08 00:40:00,44.2,40.9,30.06,North,0,1.1,0.0,88,0.00,CLR,,0.00,WeatherDisplay:10.37,2013-01-08 06:40:00,
2013-01-08 00:45:00,44.4,41.1,30.06,SW,225,1.1,0.0,88,0.00,CLR,,0.00,WeatherDisplay:10.37,2013-01-08 06:45:00,
2013-01-08 00:50:00,44.4,41.1,30.05,North,0,1.1,1.1,88,0.00,CLR,,0.00,WeatherDisplay:10.37,2013-01-08 06:50:00,
2013-01-08 00:55:00,44.4,41.1,30.05,North,0,1.6,1.6,88,0.00,CLR,,0.00,WeatherDisplay:10.37,2013-01-08 06:55:00,
2013-01-08 01:00:00,44.6,41.3,30.05,North,0,2.3,2.3,88,0.00,CLR,,0.00,WeatherDisplay:10.37,2013-01-08 07:00:00,
2013-01-08 01:05:00,44.4,41.1,30.05,North,0,1.1,1.1,88,0.00,CLR,,0.00,WeatherDisplay:10.37,2013-01-08 07:05:00,
2013-01-08 01:10:00,44.2,40.6,30.05,North,0,1.1,1.1,87,0.00,CLR,,0.00,WeatherDisplay:10.37,2013-01-08 07:10:00,
2013-01-08 01:15:00,44.2,40.9,30.05,North,0,1.1,1.1,88,0.00,CLR,,0.00,WeatherDisplay:10.37,2013-01-08 07:15:00,
2013-01-08 01:20:00,44.1,40.7,30.05,North,0,1.1,1.1,88,0.00,CLR,,0.00,WeatherDisplay:10.37,2013-01-08 07:20:00,
2013-01-08 01:25:00,44.1,40.7,30.04,North,0,2.3,2.3,88,0.00,CLR,,0.00,WeatherDisplay:10.37,2013-01-08 07:25:00,
2013-01-08 01:30:00,43.9,40.6,30.04,NE,45,2.3,2.3,88,0.00,CLR,,0.00,WeatherDisplay:10.37,2013-01-08 07:30:00,
2013-01-08 01:35:00,43.9,40.6,30.04,NE,39,1.0,3.0,88,0.00,CLR,,0.00,WeatherDisplay:10.37,2013-01-08 07:35:00,
2013-01-08 01:40:00,44.1,40.7,30.03,NNE,33,1.0,3.0,88,0.00,CLR,,0.00,WeatherDisplay:10.37,2013-01-08 07:40:00,
2013-01-08 01:45:00,44.1,40.7,30.03,North,0,3.5,3.5,88,0.00,CLR,,0.00,WeatherDisplay:10.37,2013-01-08 07:45:00,
2013-01-08 01:50:00,44.2,40.8,30.03,NNE,27,1.0,4.0,88,0.00,CLR,,0.00,WeatherDisplay:10.37,2013-01-08 07:50:00,
2013-01-08 01:55:00,44.2,40.6,30.03,NNE,22,1.0,3.0,87,0.00,CLR,,0.00,WeatherDisplay:10.37,2013-01-08 07:55:00,
2013-01-08 02:00:00,44.2,40.6,30.03,NE,45,1.0,3.0,87,0.00,CLR,,0.00,WeatherDisplay:10.37,2013-01-08 08:00:00,
2013-01-08 02:05:00,44.2,40.6,30.03,ENE,68,3.5,3.5,87,0.00,CLR,,0.00,WeatherDisplay:10.37,2013-01-08 08:05:00,
2013-01-08 02:10:00,44.2,40.6,30.04,ENE,74,0.0,3.0,87,0.00,CLR,,0.00,WeatherDisplay:10.37,2013-01-08 08:10:00,
2013-01-08 02:15:00,44.1,40.4,30.04,East,90,0.0,0.0,87,0.00,CLR,,0.00,WeatherDisplay:10.37,2013-01-08 08:15:00,
2013-01-08 02:20:00,43.7,40.1,30.04,North,0,1.1,1.1,87,0.00,CLR,,0.00,WeatherDisplay:10.37,2013-01-08 08:20:00,
2013-01-08 02:25:00,43.5,39.9,30.04,NW,315,1.1,0.0,87,0.00,CLR,,0.00,WeatherDisplay:10.37,2013-01-08 08:25:00,
2013-01-08 02:30:00,43.3,40.0,30.04,West,270,1.1,0.0,88,0.00,CLR,,0.00,WeatherDisplay:10.37,2013-01-08 08:30:00,
2013-01-08 02:35:00,43.3,40.0,30.04,West,276,0.0,2.0,88,0.00,CLR,,0.00,WeatherDisplay:10.37,2013-01-08 08:35:00,
2013-01-08 02:40:00,43.5,40.5,30.04,WNW,290,1.0,2.0,89,0.00,CLR,,0.00,WeatherDisplay:10.37,2013-01-08 08:40:00,
2013-01-08 02:45:00,43.9,40.8,30.04,North,0,1.1,0.0,89,0.00,CLR,,0.00,WeatherDisplay:10.37,2013-01-08 08:45:00,
2013-01-08 02:50:00,44.1,41.0,30.04,North,3,1.0,2.0,89,0.00,CLR,,0.00,WeatherDisplay:10.37,2013-01-08 08:50:00,
2013-01-08 02:55:00,44.1,41.0,30.04,West,270,1.1,0.0,89,0.00,CLR,,0.00,WeatherDisplay:10.37,2013-01-08 08:55:00,
2013-01-08 03:00:00,44.1,41.0,30.04,North,0,1.1,0.0,89,0.00,CLR,,0.00,WeatherDisplay:10.37,2013-01-08 09:00:00,
2013-01-08 03:05:00,44.1,41.0,30.04,North,0,1.1,0.0,89,0.00,CLR,,0.00,WeatherDisplay:10.37,2013-01-08 09:05:00,
2013-01-08 03:11:00,44.2,41.5,30.04,NE,45,2.3,2.3,90,0.00,CLR,,0.00,WeatherDisplay:10.37,2013-01-08 09:11:00,
2013-01-08 03:16:00,44.4,41.4,30.03,North,0,1.1,1.1,89,0.00,CLR,,0.00,WeatherDisplay:10.37,2013-01-08 09:16:00,
2013-01-08 03:21:00,44.8,41.7,30.04,North,0,1.1,0.0,89,0.00,CLR,,0.00,WeatherDisplay:10.37,2013-01-08 09:21:00,
2013-01-08 03:26:00,45.0,41.9,30.04,NE,45,1.1,0.0,89,0.00,CLR,,0.00,WeatherDisplay:10.37,2013-01-08 09:26:00,
2013-01-08 03:31:00,45.1,42.1,30.03,North,0,2.3,2.3,89,0.00,CLR,,0.00,WeatherDisplay:10.37,2013-01-08 09:31:00,
2013-01-08 03:36:00,45.3,42.0,30.02,NE,45,3.5,3.5,88,0.00,CLR,,0.00,WeatherDisplay:10.37,2013-01-08 09:36:00,
2013-01-08 03:41:00,45.3,42.0,30.03,NW,315,1.1,1.1,88,0.00,CLR,,0.00,WeatherDisplay:10.37,2013-01-08 09:41:00,
2013-01-08 03:46:00,45.3,42.0,30.03,NE,45,2.3,2.3,88,0.00,CLR,,0.00,WeatherDisplay:10.37,2013-01-08 09:46:00,
2013-01-08 03:51:00,45.3,41.7,30.02,NE,45,2.3,2.3,87,0.00,CLR,,0.00,WeatherDisplay:10.37,2013-01-08 09:51:00,
2013-01-08 03:56:00,45.1,41.5,30.01,North,0,2.3,2.3,87,0.00,CLR,,0.00,WeatherDisplay:10.37,2013-01-08 09:56:00,
2013-01-08 04:00:00,56.1,55.6,29.95,NE,45,0.0,1.0,98,0.00,CL,CL,0.00,WeatherDisplay:10.37,2013-01-08 10:00:00,
2013-01-08 04:01:00,45.1,41.5,30.02,North,0,3.5,3.5,87,0.00,CLR,,0.00,WeatherDisplay:10.37,2013-01-08 10:01:00,
2013-01-08 04:07:00,45.1,41.5,30.01,North,0,3.5,3.5,87,0.00,CLR,,0.00,WeatherDisplay:10.37,2013-01-08 10:07:00,
2013-01-08 04:12:00,44.6,41.0,30.03,North,0,1.1,0.0,87,0.00,CLR,,0.00,WeatherDisplay:10.37,2013-01-08 10:12:00,
2013-01-08 04:17:00,44.4,40.8,30.01,NE,45,3.5,3.5,87,0.00,CLR,,0.00,WeatherDisplay:10.37,2013-01-08 10:17:00,
2013-01-08 04:22:00,44.2,40.6,30.02,West,270,1.1,0.0,87,0.00,CLR,,0.00,WeatherDisplay:10.37,2013-01-08 10:22:00,
2013-01-08 04:27:00,44.1,40.7,30.02,North,0,2.3,2.3,88,0.00,CLR,,0.00,WeatherDisplay:10.37,2013-01-08 10:27:00,
2013-01-08 04:32:00,44.1,40.7,30.02,NE,45,1.1,1.1,88,0.00,CLR,,0.00,WeatherDisplay:10.37,2013-01-08 10:32:00,
2013-01-08 04:37:00,43.9,40.6,30.01,North,0,2.3,0.0,88,0.00,CLR,,0.00,WeatherDisplay:10.37,2013-01-08 10:37:00,
2013-01-08 04:42:00,43.9,40.8,30.01,North,0,2.3,2.3,89,0.00,CLR,,0.00,WeatherDisplay:10.37,2013-01-08 10:42:00,
2013-01-08 04:47:00,44.1,41.0,30.01,North,0,3.5,0.0,89,0.00,CLR,,0.00,WeatherDisplay:10.37,2013-01-08 10:47:00,
2013-01-08 04:52:00,44.1,41.0,30.01,NW,315,2.3,0.0,89,0.00,CLR,,0.00,WeatherDisplay:10.37,2013-01-08 10:52:00,
2013-01-08 04:57:00,44.2,41.2,30.02,West,270,1.1,0.0,89,0.00,CLR,,0.00,WeatherDisplay:10.37,2013-01-08 10:57:00,
2013-01-08 05:00:00,56.3,55.7,29.94,NE,45,0.0,1.0,98,0.00,CL,CL,0.00,WeatherDisplay:10.37,2013-01-08 11:00:00,
2013-01-08 05:03:00,44.2,41.2,30.02,NW,315,2.3,2.3,89,0.00,CLR,,0.00,WeatherDisplay:10.37,2013-01-08 11:03:00,
2013-01-08 05:08:00,44.4,41.4,30.01,NE,45,2.3,2.3,89,0.00,CLR,,0.00,WeatherDisplay:10.37,2013-01-08 11:08:00,
2013-01-08 05:13:00,44.6,41.6,30.01,North,0,2.3,2.3,89,0.00,CLR,,0.00,WeatherDisplay:10.37,2013-01-08 11:13:00,
2013-01-08 05:18:00,44.8,41.7,30.01,NE,45,3.5,3.5,89,0.00,CLR,,0.00,WeatherDisplay:10.37,2013-01-08 11:18:00,
2013-01-08 05:23:00,45.0,41.6,30.01,North,0,3.5,3.5,88,0.00,CLR,,0.00,WeatherDisplay:10.37,2013-01-08 11:23:00,
2013-01-08 05:28:00,45.1,41.8,30.01,NE,45,2.3,2.3,88,0.00,CLR,,0.00,WeatherDisplay:10.37,2013-01-08 11:28:00,
2013-01-08 05:33:00,45.1,41.8,30.01,North,0,3.5,3.5,88,0.00,CLR,,0.00,WeatherDisplay:10.37,2013-01-08 11:33:00,
2013-01-08 05:38:00,45.0,41.3,30.01,North,0,2.3,2.3,87,0.00,CLR,,0.00,WeatherDisplay:10.37,2013-01-08 11:38:00,
2013-01-08 05:43:00,45.0,41.6,30.01,NE,45,2.3,2.3,88,0.00,CLR,,0.00,WeatherDisplay:10.37,2013-01-08 11:43:00,
2013-01-08 05:48:00,45.0,41.6,30.01,North,0,2.3,2.3,88,0.00,CLR,,0.00,WeatherDisplay:10.37,2013-01-08 11:48:00,
2013-01-08 05:53:00,45.1,41.8,30.01,North,0,2.3,0.0,88,0.00,CLR,,0.00,WeatherDisplay:10.37,2013-01-08 11:53:00,
2013-01-08 05:58:00,45.3,41.7,30.01,NE,45,3.5,3.5,87,0.00,CLR,,0.00,WeatherDisplay:10.37,2013-01-08 11:58:00,
2013-01-08 06:00:00,56.3,55.7,29.96,West,270,0.0,1.0,98,0.01,CL,CL,0.00,WeatherDisplay:10.37,2013-01-08 12:00:00,
2013-01-08 06:03:00,45.3,41.7,30.02,North,0,4.6,4.6,87,0.00,CLR,,0.00,WeatherDisplay:10.37,2013-01-08 12:03:00,
2013-01-08 06:08:00,45.7,42.0,30.02,NE,45,4.6,4.6,87,0.00,CLR,,0.00,WeatherDisplay:10.37,2013-01-08 12:08:00,
2013-01-08 06:13:00,45.9,41.9,30.02,East,90,3.5,3.5,86,0.00,CLR,,0.00,WeatherDisplay:10.37,2013-01-08 12:13:00,
2013-01-08 06:18:00,45.9,41.9,30.02,NE,45,2.3,3.1,86,0.00,CLR,,0.00,WeatherDisplay:10.37,2013-01-08 12:18:00,
2013-01-08 06:23:00,45.9,41.9,30.02,NE,45,5.8,5.8,86,0.00,CLR,,0.00,WeatherDisplay:10.37,2013-01-08 12:23:00,
2013-01-08 06:28:00,46.0,41.8,30.02,NE,45,3.5,3.5,85,0.00,CLR,,0.00,WeatherDisplay:10.37,2013-01-08 12:28:00,
2013-01-08 06:34:00,46.0,41.8,30.02,NE,45,4.6,4.6,85,0.00,CLR,,0.00,WeatherDisplay:10.37,2013-01-08 12:34:00,
2013-01-08 06:39:00,46.0,41.8,30.01,North,0,3.5,3.5,85,0.00,CLR,,0.00,WeatherDisplay:10.37,2013-01-08 12:39:00,
2013-01-08 06:44:00,46.0,41.8,30.03,North,0,1.1,0.0,85,0.00,CLR,,0.00,WeatherDisplay:10.37,2013-01-08 12:44:00,
2013-01-08 06:49:00,46.2,42.0,30.03,North,0,2.3,2.3,85,0.00,CLR,,0.00,WeatherDisplay:10.37,2013-01-08 12:49:00,
2013-01-08 06:54:00,46.2,42.0,30.03,SW,225,2.3,2.3,85,0.00,CLR,,0.00,WeatherDisplay:10.37,2013-01-08 12:54:00,
2013-01-08 06:59:00,46.0,41.8,30.03,NE,45,3.5,3.5,85,0.00,CLR,,0.00,WeatherDisplay:10.37,2013-01-08 12:59:00,
2013-01-08 07:00:00,57.2,56.9,29.97,NE,45,1.0,2.0,99,0.00,CL,CL,0.00,WeatherDisplay:10.37,2013-01-08 13:00:00,
2013-01-08 07:04:00,46.0,41.8,30.03,NE,45,1.1,1.1,85,0.00,CLR,,0.00,WeatherDisplay:10.37,2013-01-08 13:04:00,
2013-01-08 07:09:00,45.7,41.4,30.03,SE,135,3.5,3.5,85,0.00,CLR,,0.00,WeatherDisplay:10.37,2013-01-08 13:09:00,
2013-01-08 07:14:00,45.5,41.3,30.03,NE,45,1.6,1.6,85,0.00,CLR,,0.00,WeatherDisplay:10.37,2013-01-08 13:14:00,
2013-01-08 07:19:00,45.3,41.1,30.04,NE,45,1.1,1.1,85,0.00,CLR,,0.00,WeatherDisplay:10.37,2013-01-08 13:19:00,
2013-01-08 07:24:00,45.1,40.9,30.04,East,90,3.5,3.5,85,0.00,CLR,,0.00,WeatherDisplay:10.37,2013-01-08 13:24:00,
2013-01-08 07:29:00,45.1,41.2,30.04,NE,45,3.5,3.5,86,0.00,CLR,,0.00,WeatherDisplay:10.37,2013-01-08 13:29:00,
2013-01-08 07:34:00,45.5,41.6,30.05,East,90,3.5,3.5,86,0.00,CLR,,0.00,WeatherDisplay:10.37,2013-01-08 13:34:00,
2013-01-08 07:39:00,45.7,41.7,30.04,NE,45,3.5,3.5,86,0.00,CLR,,0.00,WeatherDisplay:10.37,2013-01-08 13:39:00,
2013-01-08 07:45:00,46.0,41.8,30.04,NE,45,3.5,3.5,85,0.00,CLR,,0.00,WeatherDisplay:10.37,2013-01-08 13:45:00,
2013-01-08 07:50:00,46.4,42.1,30.04,East,90,3.5,3.5,85,0.00,CLR,,0.00,WeatherDisplay:10.37,2013-01-08 13:50:00,
2013-01-08 07:55:00,46.8,42.5,30.04,NNE,32,1.0,3.0,85,0.00,CLR,,0.00,WeatherDisplay:10.37,2013-01-08 13:55:00,
2013-01-08 08:00:00,47.1,42.5,30.05,NE,40,1.0,5.0,84,0.00,CLR,,0.00,WeatherDisplay:10.37,2013-01-08 14:00:00,
2013-01-08 08:05:00,47.1,42.5,30.05,North,0,3.5,3.5,84,0.00,CLR,,0.00,WeatherDisplay:10.37,2013-01-08 14:05:00,
2013-01-08 08:11:00,47.7,42.8,30.04,East,90,5.8,5.8,83,0.00,CLR,,0.00,WeatherDisplay:10.37,2013-01-08 14:11:00,
2013-01-08 08:16:00,48.0,43.1,30.05,NNE,33,1.0,3.0,83,0.00,CLR,,0.00,WeatherDisplay:10.37,2013-01-08 14:16:00,
2013-01-08 08:21:00,48.4,43.5,30.05,East,90,4.6,4.6,83,0.00,CLR,,0.00,WeatherDisplay:10.37,2013-01-08 14:21:00,
2013-01-08 08:26:00,48.7,43.5,30.06,NE,45,5.8,5.8,82,0.00,CLR,,0.00,WeatherDisplay:10.37,2013-01-08 14:26:00,
2013-01-08 08:31:00,49.1,43.8,30.06,NNE,22,3.5,3.5,82,0.00,CLR,,0.00,WeatherDisplay:10.37,2013-01-08 14:31:00,
2013-01-08 08:36:00,49.3,44.0,30.06,NE,45,3.5,3.5,82,0.00,CLR,,0.00,WeatherDisplay:10.37,2013-01-08 14:36:00,
2013-01-08 08:41:00,49.5,44.2,30.06,NE,45,3.5,3.5,82,0.00,CLR,,0.00,WeatherDisplay:10.37,2013-01-08 14:41:00,
2013-01-08 08:46:00,49.6,44.0,30.06,NE,45,3.5,3.5,81,0.00,CLR,,0.00,WeatherDisplay:10.37,2013-01-08 14:46:00,
2013-01-08 08:51:00,49.8,44.2,30.06,ENE,68,3.5,3.5,81,0.00,CLR,,0.00,WeatherDisplay:10.37,2013-01-08 14:51:00,
2013-01-08 08:56:00,50.0,44.1,30.06,NE,45,2.3,2.3,80,0.00,CLR,,0.00,WeatherDisplay:10.37,2013-01-08 14:56:00,
2013-01-08 09:00:00,59.7,59.4,29.99,NW,315,0.0,1.0,99,0.00,CL,CL,0.00,WeatherDisplay:10.37,2013-01-08 15:00:00,
2013-01-08 09:01:00,50.2,44.2,30.07,West,270,3.5,3.5,80,0.00,CLR,,0.00,WeatherDisplay:10.37,2013-01-08 15:01:00,
2013-01-08 09:06:00,50.2,44.2,30.06,West,270,3.5,3.5,80,0.00,CLR,,0.00,WeatherDisplay:10.37,2013-01-08 15:06:00,
2013-01-08 09:11:00,50.5,44.9,30.07,SE,135,3.5,3.5,81,0.00,CLR,,0.00,WeatherDisplay:10.37,2013-01-08 15:11:00,
2013-01-08 09:16:00,50.7,45.1,30.07,ENE,68,4.6,4.6,81,0.00,CLR,,0.00,WeatherDisplay:10.37,2013-01-08 15:16:00,
2013-01-08 09:21:00,50.7,45.1,30.07,NE,45,3.5,3.5,81,0.00,CLR,,0.00,WeatherDisplay:10.37,2013-01-08 15:21:00,
2013-01-08 09:26:00,51.1,45.5,30.07,NE,45,4.6,4.6,81,0.00,CLR,,0.00,WeatherDisplay:10.37,2013-01-08 15:26:00,
2013-01-08 09:31:00,51.1,45.5,30.08,East,90,4.6,4.6,81,0.00,CLR,,0.00,WeatherDisplay:10.37,2013-01-08 15:31:00,
2013-01-08 09:36:00,51.1,45.5,30.07,NE,45,3.5,3.5,81,0.00,CLR,,0.00,WeatherDisplay:10.37,2013-01-08 15:36:00,
2013-01-08 09:41:00,51.3,45.3,30.07,North,0,3.5,3.5,80,0.00,CLR,,0.00,WeatherDisplay:10.37,2013-01-08 15:41:00,
2013-01-08 09:46:00,51.3,45.6,30.07,NW,315,3.5,0.0,81,0.00,CLR,,0.00,WeatherDisplay:10.37,2013-01-08 15:46:00,
2013-01-08 09:51:00,51.4,45.8,30.08,NE,45,3.5,3.5,81,0.00,CLR,,0.00,WeatherDisplay:10.37,2013-01-08 15:51:00,
2013-01-08 09:56:00,51.6,46.0,30.08,NE,45,3.5,3.5,81,0.00,CLR,,0.00,WeatherDisplay:10.37,2013-01-08 15:56:00,
2013-01-08 10:00:00,60.3,60.0,29.96,NE,45,1.0,3.0,99,0.00,CL,CL,0.00,WeatherDisplay:10.37,2013-01-08 16:00:00,
2013-01-08 10:01:00,51.8,46.2,30.08,East,90,2.3,0.0,81,0.00,CLR,,0.00,WeatherDisplay:10.37,2013-01-08 16:01:00,
2013-01-08 10:06:00,51.8,46.2,30.09,East,90,1.1,0.0,81,0.00,CLR,,0.00,WeatherDisplay:10.37,2013-01-08 16:06:00,
2013-01-08 10:11:00,52.2,46.8,30.08,North,0,2.3,2.3,82,0.00,CLR,,0.00,WeatherDisplay:10.37,2013-01-08 16:11:00,
2013-01-08 10:16:00,52.3,47.0,30.08,East,90,2.3,2.3,82,0.00,CLR,,0.00,WeatherDisplay:10.37,2013-01-08 16:16:00,
2013-01-08 10:21:00,52.5,47.2,30.08,NE,45,2.3,2.3,82,0.00,CLR,,0.00,WeatherDisplay:10.37,2013-01-08 16:21:00,
2013-01-08 10:26:00,52.7,47.4,30.08,North,0,2.3,2.3,82,0.00,CLR,,0.00,WeatherDisplay:10.37,2013-01-08 16:26:00,
2013-01-08 10:31:00,52.9,47.5,30.07,ENE,68,3.5,3.5,82,0.00,CLR,,0.00,WeatherDisplay:10.37,2013-01-08 16:31:00,
2013-01-08 10:36:00,53.1,47.7,30.07,North,0,2.3,2.3,82,0.00,CLR,,0.00,WeatherDisplay:10.37,2013-01-08 16:36:00,
2013-01-08 10:41:00,53.4,48.1,30.08,NE,45,2.3,2.3,82,0.00,CLR,,0.00,WeatherDisplay:10.37,2013-01-08 16:41:00,
2013-01-08 10:46:00,53.4,48.1,30.07,NE,45,1.1,1.1,82,0.00,CLR,,0.00,WeatherDisplay:10.37,2013-01-08 16:46:00,
2013-01-08 10:51:00,53.4,48.1,30.08,NE,45,1.1,1.1,82,0.00,CLR,,0.00,WeatherDisplay:10.37,2013-01-08 16:51:00,
2013-01-08 10:56:00,53.6,48.2,30.07,North,0,2.3,2.3,82,0.00,CLR,,0.00,WeatherDisplay:10.37,2013-01-08 16:56:00,
2013-01-08 11:00:00,61.4,61.1,29.97,NNE,23,1.0,2.0,99,-0.39,CL,CL,0.00,WeatherDisplay:10.37,2013-01-08 17:00:00,
2013-01-08 11:01:00,53.6,48.2,30.07,NE,45,2.3,2.3,82,0.00,CLR,,0.00,WeatherDisplay:10.37,2013-01-08 17:01:00,
2013-01-08 11:06:00,53.6,48.2,30.06,NE,45,2.3,2.3,82,0.00,CLR,,0.00,WeatherDisplay:10.37,2013-01-08 17:06:00,
2013-01-08 11:11:00,53.8,48.7,30.06,SW,225,3.5,3.5,83,0.00,CLR,,0.00,WeatherDisplay:10.37,2013-01-08 17:11:00,
2013-01-08 11:16:00,53.6,49.2,30.06,NW,315,1.1,1.1,85,0.01,RA,,0.01,WeatherDisplay:10.37,2013-01-08 17:16:00,
2013-01-08 11:21:00,53.2,49.2,30.06,NNE,22,2.3,2.3,86,0.01,RA,,0.01,WeatherDisplay:10.37,2013-01-08 17:21:00,
2013-01-08 11:26:00,53.1,49.6,30.05,NE,45,2.3,2.3,88,0.02,RA,,0.02,WeatherDisplay:10.37,2013-01-08 17:26:00,
2013-01-08 11:31:00,53.1,49.9,30.05,NW,315,2.3,0.0,89,0.02,RA,,0.02,WeatherDisplay:10.37,2013-01-08 17:31:00,
2013-01-08 11:36:00,53.2,50.1,30.05,North,0,1.1,1.1,89,0.02,CLR,,0.02,WeatherDisplay:10.37,2013-01-08 17:36:00,
2013-01-08 11:41:00,53.2,50.4,30.05,East,90,2.3,2.3,90,0.02,CLR,,0.02,WeatherDisplay:10.37,2013-01-08 17:41:00,
2013-01-08 11:46:00,53.4,50.9,30.05,NE,45,4.6,4.6,91,0.02,CLR,,0.02,WeatherDisplay:10.37,2013-01-08 17:46:00,
2013-01-08 11:51:00,53.6,51.3,30.04,NNW,338,3.5,3.5,92,0.02,CLR,,0.02,WeatherDisplay:10.37,2013-01-08 17:51:00,
2013-01-08 11:56:00,53.6,51.3,30.04,North,0,3.5,0.0,92,0.02,CLR,,0.02,WeatherDisplay:10.37,2013-01-08 17:56:00,
2013-01-08 12:00:00,61.5,61.2,29.95,SW,225,0.0,2.0,99,0.00,CL,CL,0.00,WeatherDisplay:10.37,2013-01-08 18:00:00,
2013-01-08 12:01:00,53.6,51.6,30.05,North,0,1.1,0.0,93,0.02,CLR,,0.02,WeatherDisplay:10.37,2013-01-08 18:01:00,
2013-01-08 12:06:00,53.6,51.6,30.04,West,270,1.1,0.0,93,0.02,CLR,,0.02,WeatherDisplay:10.37,2013-01-08 18:06:00,
2013-01-08 12:11:00,53.6,51.6,30.04,SW,225,1.1,1.1,93,0.02,CLR,,0.04,WeatherDisplay:10.37,2013-01-08 18:11:00,
2013-01-08 12:16:00,53.4,51.7,30.04,West,270,1.1,0.0,94,0.02,RA,,0.04,WeatherDisplay:10.37,2013-01-08 18:16:00,
2013-01-08 12:21:00,53.4,51.7,30.04,West,270,1.1,0.0,94,0.02,RA,,0.04,WeatherDisplay:10.37,2013-01-08 18:21:00,
2013-01-08 12:26:00,53.4,51.7,30.05,SE,135,0.0,0.0,94,0.04,RA,,0.07,WeatherDisplay:10.37,2013-01-08 18:26:00,
2013-01-08 12:31:00,53.4,52.0,30.04,NE,45,1.1,1.1,95,0.07,RA,,0.09,WeatherDisplay:10.37,2013-01-08 18:31:00,
2013-01-08 12:36:00,53.4,52.0,30.03,NE,45,1.1,1.1,95,0.11,RA,,0.14,WeatherDisplay:10.37,2013-01-08 18:36:00,
2013-01-08 12:41:00,53.2,51.8,30.03,NE,45,1.1,1.1,95,0.14,RA,,0.17,WeatherDisplay:10.37,2013-01-08 18:41:00,
2013-01-08 12:46:00,53.4,52.0,30.03,NE,45,1.1,0.0,95,0.17,RA,,0.19,WeatherDisplay:10.37,2013-01-08 18:46:00,
2013-01-08 12:51:00,53.4,52.3,30.03,North,0,2.3,2.3,96,0.18,RA,,0.20,WeatherDisplay:10.37,2013-01-08 18:51:00,
2013-01-08 12:56:00,53.4,52.3,30.01,North,0,1.1,0.0,96,0.20,RA,,0.22,WeatherDisplay:10.37,2013-01-08 18:56:00,
2013-01-08 13:00:00,60.8,60.5,29.94,NNE,23,0.0,2.0,99,0.00,CL,CL,0.00,WeatherDisplay:10.37,2013-01-08 19:00:00,
2013-01-08 13:01:00,53.6,52.5,30.01,North,0,2.3,2.3,96,0.21,RA,,0.24,WeatherDisplay:10.37,2013-01-08 19:01:00,
2013-01-08 13:06:00,53.6,52.5,30.00,North,0,2.3,2.3,96,0.21,RA,,0.24,WeatherDisplay:10.37,2013-01-08 19:06:00,
2013-01-08 13:11:00,53.8,52.7,29.99,North,0,4.6,4.6,96,0.24,RA,,0.26,WeatherDisplay:10.37,2013-01-08 19:11:00,
2013-01-08 13:16:00,54.0,53.1,29.99,NE,45,2.3,2.3,97,0.22,RA,,0.26,WeatherDisplay:10.37,2013-01-08 19:16:00,
2013-01-08 13:21:00,54.3,53.5,29.99,NE,45,3.8,3.8,97,0.24,RA,,0.27,WeatherDisplay:10.37,2013-01-08 19:21:00,
2013-01-08 13:26:00,54.3,53.5,29.98,NE,45,3.5,3.5,97,0.22,RA,,0.28,WeatherDisplay:10.37,2013-01-08 19:26:00,
2013-01-08 13:31:00,54.3,53.5,29.98,NE,45,3.5,3.5,97,0.19,RA,,0.28,WeatherDisplay:10.37,2013-01-08 19:31:00,
2013-01-08 13:36:00,54.3,53.5,29.98,NE,45,3.5,3.5,97,0.15,,,0.28,WeatherDisplay:10.37,2013-01-08 19:36:00,
2013-01-08 13:41:00,54.3,53.5,29.97,NE,45,4.6,4.6,97,0.13,RA,,0.30,WeatherDisplay:10.37,2013-01-08 19:41:00,
2013-01-08 13:46:00,54.3,53.5,29.97,NE,45,3.5,3.5,97,0.11,RA,,0.30,WeatherDisplay:10.37,2013-01-08 19:46:00,
2013-01-08 13:51:00,54.7,53.8,29.96,NE,45,3.5,3.5,97,0.09,,,0.31,WeatherDisplay:10.37,2013-01-08 19:51:00,
2013-01-08 13:56:00,54.9,54.0,29.96,NE,45,3.5,3.5,97,0.08,RA,,0.31,WeatherDisplay:10.37,2013-01-08 19:56:00,
2013-01-08 14:00:00,60.1,59.8,29.95,West,270,0.0,3.0,99,0.00,CL,CL,0.00,WeatherDisplay:10.37,2013-01-08 20:00:00,
2013-01-08 14:01:00,55.0,54.2,29.96,NE,45,2.3,0.0,97,0.07,RA,,0.31,WeatherDisplay:10.37,2013-01-08 20:01:00,
2013-01-08 14:06:00,55.2,54.4,29.96,NE,45,3.1,3.1,97,0.07,CLR,,0.31,WeatherDisplay:10.37,2013-01-08 20:06:00,
2013-01-08 14:11:00,55.4,54.6,29.96,East,90,3.5,3.5,97,0.05,CLR,,0.31,WeatherDisplay:10.37,2013-01-08 20:11:00,
2013-01-08 14:16:00,55.6,54.7,29.95,NE,45,5.8,5.8,97,0.05,CLR,,0.31,WeatherDisplay:10.37,2013-01-08 20:16:00,
2013-01-08 14:21:00,55.6,54.7,29.95,NE,45,3.5,3.5,97,0.04,CLR,,0.31,WeatherDisplay:10.37,2013-01-08 20:21:00,
2013-01-08 14:26:00,55.8,54.9,29.95,East,90,5.8,0.0,97,0.02,CLR,,0.31,WeatherDisplay:10.37,2013-01-08 20:26:00,
2013-01-08 14:31:00,55.9,55.1,29.95,NE,45,3.5,3.5,97,0.02,CLR,,0.31,WeatherDisplay:10.37,2013-01-08 20:31:00,
2013-01-08 14:36:00,56.1,55.6,29.95,East,90,3.5,0.0,98,0.02,CLR,,0.31,WeatherDisplay:10.37,2013-01-08 20:36:00,
2013-01-08 14:41:00,56.3,55.7,29.95,North,0,3.5,3.5,98,0.01,CLR,,0.31,WeatherDisplay:10.37,2013-01-08 20:41:00,
2013-01-08 14:46:00,56.5,55.9,29.95,NE,45,3.5,3.5,98,0.01,CLR,,0.31,WeatherDisplay:10.37,2013-01-08 20:46:00,
2013-01-08 14:51:00,56.5,55.9,29.94,NE,45,4.6,4.6,98,0.01,CLR,,0.31,WeatherDisplay:10.37,2013-01-08 20:51:00,
2013-01-08 14:56:00,56.7,56.1,29.94,NE,45,2.3,2.3,98,0.00,CLR,,0.31,WeatherDisplay:10.37,2013-01-08 20:56:00,
2013-01-08 15:00:00,60.3,60.0,29.95,ENE,68,1.0,2.0,99,0.00,CL,CL,0.00,WeatherDisplay:10.37,2013-01-08 21:00:00,
2013-01-08 15:01:00,56.7,56.1,29.93,NE,45,4.6,4.6,98,0.00,CLR,,0.31,WeatherDisplay:10.37,2013-01-08 21:01:00,
2013-01-08 15:06:00,56.7,56.1,29.93,NE,45,4.6,4.6,98,0.00,CLR,,0.31,WeatherDisplay:10.37,2013-01-08 21:06:00,
2013-01-08 15:11:00,56.8,56.3,29.93,East,90,3.5,3.5,98,0.00,CLR,,0.31,WeatherDisplay:10.37,2013-01-08 21:11:00,
2013-01-08 15:16:00,57.0,56.5,29.93,NE,45,3.5,3.5,98,0.00,CLR,,0.31,WeatherDisplay:10.37,2013-01-08 21:16:00,
2013-01-08 15:21:00,57.0,56.5,29.93,North,0,3.5,3.5,98,0.00,CLR,,0.31,WeatherDisplay:10.37,2013-01-08 21:21:00,
2013-01-08 15:26:00,57.0,56.5,29.93,WNW,292,2.3,2.3,98,0.00,CLR,,0.31,WeatherDisplay:10.37,2013-01-08 21:26:00,
2013-01-08 15:31:00,57.0,56.5,29.93,North,0,2.3,2.3,98,0.00,CLR,,0.31,WeatherDisplay:10.37,2013-01-08 21:31:00,
2013-01-08 15:36:00,56.8,56.0,29.93,NE,45,3.5,0.0,97,0.00,CLR,,0.31,WeatherDisplay:10.37,2013-01-08 21:36:00,
2013-01-08 15:41:00,56.8,56.3,29.93,North,0,2.3,2.3,98,0.00,CLR,,0.31,WeatherDisplay:10.37,2013-01-08 21:41:00,
2013-01-08 15:46:00,56.8,56.3,29.93,North,0,2.3,0.0,98,0.00,CLR,,0.31,WeatherDisplay:10.37,2013-01-08 21:46:00,
2013-01-08 15:51:00,56.7,55.8,29.94,North,0,2.3,2.3,97,0.00,CLR,,0.31,WeatherDisplay:10.37,2013-01-08 21:51:00,
2013-01-08 15:56:00,56.7,56.1,29.94,North,0,1.1,0.0,98,0.00,CLR,,0.31,WeatherDisplay:10.37,2013-01-08 21:56:00,
2013-01-08 16:00:00,60.3,60.0,29.95,NE,45,1.0,2.0,99,0.00,CL,CL,0.00,WeatherDisplay:10.37,2013-01-08 22:00:00,
2013-01-08 16:01:00,56.7,55.8,29.94,NE,45,1.1,0.0,97,0.00,CLR,,0.31,WeatherDisplay:10.37,2013-01-08 22:01:00,
2013-01-08 16:06:00,56.7,55.8,29.94,NE,45,1.1,0.0,97,0.00,CLR,,0.31,WeatherDisplay:10.37,2013-01-08 22:06:00,
2013-01-08 16:11:00,56.5,55.6,29.94,NE,45,2.3,2.3,97,0.00,CLR,,0.31,WeatherDisplay:10.37,2013-01-08 22:11:00,
2013-01-08 16:16:00,56.5,55.6,29.94,North,0,1.1,0.0,97,0.00,CLR,,0.31,WeatherDisplay:10.37,2013-01-08 22:16:00,
2013-01-08 16:21:00,56.3,55.5,29.94,North,0,1.1,0.0,97,0.00,CLR,,0.31,WeatherDisplay:10.37,2013-01-08 22:21:00,
2013-01-08 16:26:00,56.3,55.7,29.94,NE,45,1.1,0.0,98,0.00,CLR,,0.31,WeatherDisplay:10.37,2013-01-08 22:26:00,
2013-01-08 16:31:00,56.1,55.6,29.94,NNE,22,2.2,2.2,98,0.00,CLR,,0.31,WeatherDisplay:10.37,2013-01-08 22:31:00,
2013-01-08 16:36:00,56.1,55.6,29.94,North,0,2.3,2.3,98,0.00,CLR,,0.31,WeatherDisplay:10.37,2013-01-08 22:36:00,
2013-01-08 16:41:00,56.1,55.6,29.94,NE,45,3.5,0.0,98,0.00,CLR,,0.31,WeatherDisplay:10.37,2013-01-08 22:41:00,
2013-01-08 16:46:00,56.1,55.6,29.94,NE,45,3.5,0.0,98,0.00,CLR,,0.31,WeatherDisplay:10.37,2013-01-08 22:46:00,
2013-01-08 16:51:00,56.1,55.6,29.95,NE,45,1.1,0.0,98,0.00,CLR,,0.31,WeatherDisplay:10.37,2013-01-08 22:51:00,
2013-01-08 16:56:00,56.1,55.6,29.94,NE,45,2.3,2.3,98,0.00,CLR,,0.31,WeatherDisplay:10.37,2013-01-08 22:56:00,
2013-01-08 17:00:00,60.6,60.3,29.97,NE,45,0.0,1.0,99,0.00,CL,CL,0.00,WeatherDisplay:10.37,2013-01-08 23:00:00,
2013-01-08 17:01:00,56.1,55.6,29.95,NE,45,1.1,0.0,98,0.00,CLR,,0.31,WeatherDisplay:10.37,2013-01-08 23:01:00,
2013-01-08 17:06:00,56.1,55.6,29.94,NE,45,1.1,0.0,98,0.00,CLR,,0.31,WeatherDisplay:10.37,2013-01-08 23:06:00,
2013-01-08 17:11:00,56.1,55.6,29.94,NE,45,3.5,3.5,98,0.00,CLR,,0.31,WeatherDisplay:10.37,2013-01-08 23:11:00,
2013-01-08 17:16:00,56.1,55.6,29.94,NE,45,2.3,2.3,98,0.00,CLR,,0.31,WeatherDisplay:10.37,2013-01-08 23:16:00,
2013-01-08 17:21:00,56.3,55.7,29.94,NE,45,1.1,1.1,98,0.00,CLR,,0.31,WeatherDisplay:10.37,2013-01-08 23:21:00,
2013-01-08 17:26:00,56.3,55.7,29.94,NE,45,3.5,3.5,98,0.00,CLR,,0.31,WeatherDisplay:10.37,2013-01-08 23:26:00,
2013-01-08 17:31:00,56.3,55.7,29.94,North,0,3.5,3.5,98,0.00,CLR,,0.31,WeatherDisplay:10.37,2013-01-08 23:31:00,
2013-01-08 17:36:00,56.3,55.7,29.94,North,0,2.3,0.0,98,0.00,CLR,,0.31,WeatherDisplay:10.37,2013-01-08 23:36:00,
2013-01-08 17:41:00,56.3,55.7,29.94,NW,315,1.1,0.0,98,0.00,CLR,,0.31,WeatherDisplay:10.37,2013-01-08 23:41:00,
2013-01-08 17:46:00,56.5,55.9,29.94,North,0,1.1,1.1,98,0.00,CLR,,0.31,WeatherDisplay:10.37,2013-01-08 23:46:00,
2013-01-08 17:51:00,56.3,55.7,29.94,NW,315,1.1,0.0,98,0.00,CLR,,0.31,WeatherDisplay:10.37,2013-01-08 23:51:00,
2013-01-08 17:56:00,56.3,55.7,29.94,North,0,2.3,2.3,98,0.00,CLR,,0.31,WeatherDisplay:10.37,2013-01-08 23:56:00,
2013-01-08 18:00:00,60.6,60.3,30.00,East,90,0.0,0.0,99,0.00,CL,CL,0.00,WeatherDisplay:10.37,2013-01-09 00:00:00,
2013-01-08 18:01:00,56.3,55.7,29.94,NE,45,1.1,0.0,98,0.00,CLR,,0.31,WeatherDisplay:10.37,2013-01-09 00:01:00,
2013-01-08 18:06:00,56.3,55.7,29.94,NE,45,1.1,0.0,98,0.00,CLR,,0.31,WeatherDisplay:10.37,2013-01-09 00:06:00,
2013-01-08 18:11:00,56.3,55.7,29.94,NW,315,2.3,2.3,98,0.00,CLR,,0.31,WeatherDisplay:10.37,2013-01-09 00:11:00,
2013-01-08 18:16:00,56.3,55.7,29.94,North,0,1.1,0.0,98,0.00,CLR,,0.31,WeatherDisplay:10.37,2013-01-09 00:16:00,
2013-01-08 18:21:00,56.3,55.7,29.95,NW,315,1.1,0.0,98,0.00,CLR,,0.31,WeatherDisplay:10.37,2013-01-09 00:21:00,
2013-01-08 18:26:00,56.3,55.7,29.95,North,0,1.1,0.0,98,0.00,CLR,,0.31,WeatherDisplay:10.37,2013-01-09 00:26:00,
2013-01-08 18:31:00,56.3,55.7,29.95,North,0,1.1,0.0,98,0.00,CLR,,0.31,WeatherDisplay:10.37,2013-01-09 00:31:00,
2013-01-08 18:36:00,56.1,55.6,29.96,NW,315,2.3,0.0,98,0.00,CLR,,0.31,WeatherDisplay:10.37,2013-01-09 00:36:00,
2013-01-08 18:41:00,56.1,55.6,29.96,West,270,1.1,0.0,98,0.00,CLR,,0.31,WeatherDisplay:10.37,2013-01-09 00:41:00,
2013-01-08 18:46:00,56.1,55.6,29.96,NE,45,1.1,0.0,98,0.00,CLR,,0.31,WeatherDisplay:10.37,2013-01-09 00:46:00,
2013-01-08 18:51:00,56.3,55.7,29.96,West,270,0.0,0.0,98,0.00,CLR,,0.31,WeatherDisplay:10.37,2013-01-09 00:51:00,
2013-01-08 18:56:00,56.3,55.7,29.96,West,270,0.0,0.0,98,0.00,CLR,,0.31,WeatherDisplay:10.37,2013-01-09 00:56:00,
2013-01-08 19:00:00,61.5,61.2,30.00,NNE,23,1.0,2.0,99,0.00,CL,CL,0.00,WeatherDisplay:10.37,2013-01-09 01:00:00,
2013-01-08 19:01:00,56.3,55.7,29.96,West,270,1.1,0.0,98,0.01,RA,,0.32,WeatherDisplay:10.37,2013-01-09 01:01:00,
2013-01-08 19:06:00,56.3,55.7,29.97,West,270,0.0,0.0,98,0.01,RA,,0.32,WeatherDisplay:10.37,2013-01-09 01:06:00,
2013-01-08 19:11:00,56.3,55.7,29.97,NE,45,1.1,1.1,98,0.01,CLR,,0.32,WeatherDisplay:10.37,2013-01-09 01:11:00,
2013-01-08 19:16:00,56.3,56.0,29.96,NE,45,1.1,1.1,99,0.01,CLR,,0.32,WeatherDisplay:10.37,2013-01-09 01:16:00,
2013-01-08 19:21:00,56.5,56.2,29.96,NE,45,1.1,1.1,99,0.01,CLR,,0.32,WeatherDisplay:10.37,2013-01-09 01:21:00,
2013-01-08 19:26:00,56.5,55.9,29.96,NE,45,1.1,1.1,98,0.01,CLR,,0.32,WeatherDisplay:10.37,2013-01-09 01:26:00,
2013-01-08 19:31:00,56.5,56.2,29.96,North,0,1.1,0.0,99,0.01,CLR,,0.32,WeatherDisplay:10.37,2013-01-09 01:31:00,
2013-01-08 19:36:00,56.7,56.4,29.96,NE,45,2.3,2.3,99,0.01,CLR,,0.32,WeatherDisplay:10.37,2013-01-09 01:36:00,
2013-01-08 19:41:00,56.8,56.6,29.97,North,0,1.1,1.1,99,0.01,CLR,,0.32,WeatherDisplay:10.37,2013-01-09 01:41:00,
2013-01-08 19:46:00,57.0,56.7,29.97,North,0,3.5,3.5,99,0.01,CLR,,0.32,WeatherDisplay:10.37,2013-01-09 01:46:00,
2013-01-08 19:51:00,57.0,56.7,29.97,NE,45,1.1,1.1,99,0.01,CLR,,0.32,WeatherDisplay:10.37,2013-01-09 01:51:00,
2013-01-08 19:56:00,57.2,56.9,29.97,NE,45,1.1,1.1,99,0.01,CLR,,0.32,WeatherDisplay:10.37,2013-01-09 01:56:00,
2013-01-08 20:00:00,62.8,62.5,30.03,NNE,23,0.0,2.0,99,0.00,CL,CL,0.00,WeatherDisplay:10.37,2013-01-09 02:00:00,
2013-01-08 20:01:00,57.2,56.9,29.97,NE,45,2.3,2.3,99,0.00,CLR,,0.32,WeatherDisplay:10.37,2013-01-09 02:01:00,
2013-01-08 20:06:00,57.2,56.9,29.97,NE,45,2.3,2.3,99,0.00,CLR,,0.32,WeatherDisplay:10.37,2013-01-09 02:06:00,
2013-01-08 20:11:00,57.4,57.1,29.97,East,90,2.3,0.0,99,0.01,RA,,0.33,WeatherDisplay:10.37,2013-01-09 02:11:00,
2013-01-08 20:16:00,57.4,57.1,29.97,East,90,2.3,0.0,99,0.01,RA,,0.33,WeatherDisplay:10.37,2013-01-09 02:16:00,
2013-01-08 20:21:00,57.6,57.3,29.96,North,0,1.1,1.1,99,0.01,CLR,,0.33,WeatherDisplay:10.37,2013-01-09 02:21:00,
2013-01-08 20:26:00,57.6,57.3,29.96,East,90,1.1,0.0,99,0.01,CLR,,0.33,WeatherDisplay:10.37,2013-01-09 02:26:00,
2013-01-08 20:31:00,57.7,57.5,29.96,NE,45,2.3,2.3,99,0.01,CLR,,0.33,WeatherDisplay:10.37,2013-01-09 02:31:00,
2013-01-08 20:36:00,58.1,57.8,29.96,NE,45,2.3,2.3,99,0.01,CLR,,0.33,WeatherDisplay:10.37,2013-01-09 02:36:00,
2013-01-08 20:41:00,58.3,58.0,29.96,NE,45,2.3,0.0,99,0.01,CLR,,0.33,WeatherDisplay:10.37,2013-01-09 02:41:00,
2013-01-08 20:46:00,58.5,58.2,29.96,North,0,2.3,0.0,99,0.01,CLR,,0.33,WeatherDisplay:10.37,2013-01-09 02:46:00,
2013-01-08 20:51:00,58.6,58.4,29.96,East,90,1.1,0.0,99,0.01,CLR,,0.33,WeatherDisplay:10.37,2013-01-09 02:51:00,
2013-01-08 20:56:00,58.8,58.5,29.96,NE,45,1.1,0.0,99,0.01,CLR,,0.33,WeatherDisplay:10.37,2013-01-09 02:56:00,
2013-01-08 21:00:00,63.3,63.0,30.06,NE,45,1.0,2.0,99,0.01,CL,CL,0.00,WeatherDisplay:10.37,2013-01-09 03:00:00,
2013-01-08 21:01:00,58.8,58.5,29.97,NE,45,1.1,0.0,99,0.01,CLR,,0.33,WeatherDisplay:10.37,2013-01-09 03:01:00,
2013-01-08 21:06:00,58.8,58.5,29.98,NE,45,1.1,0.0,99,0.01,CLR,,0.33,WeatherDisplay:10.37,2013-01-09 03:06:00,
2013-01-08 21:11:00,58.8,58.5,29.98,South,180,1.1,0.0,99,0.00,CLR,,0.33,WeatherDisplay:10.37,2013-01-09 03:11:00,
2013-01-08 21:16:00,58.8,58.5,29.99,North,0,1.1,0.0,99,0.00,CLR,,0.33,WeatherDisplay:10.37,2013-01-09 03:16:00,
2013-01-08 21:21:00,59.2,58.9,29.98,South,180,1.1,0.0,99,0.00,CLR,,0.33,WeatherDisplay:10.37,2013-01-09 03:21:00,
2013-01-08 21:26:00,59.4,59.1,29.99,East,90,1.1,0.0,99,0.00,CLR,,0.33,WeatherDisplay:10.37,2013-01-09 03:26:00,
2013-01-08 21:31:00,59.4,59.1,29.98,South,180,1.1,0.0,99,0.00,CLR,,0.33,WeatherDisplay:10.37,2013-01-09 03:31:00,
2013-01-08 21:36:00,59.5,59.3,29.98,NE,45,4.6,0.0,99,0.00,CLR,,0.33,WeatherDisplay:10.37,2013-01-09 03:36:00,
2013-01-08 21:41:00,59.7,59.4,29.98,SE,135,1.1,0.0,99,0.00,CLR,,0.33,WeatherDisplay:10.37,2013-01-09 03:41:00,
2013-01-08 21:46:00,59.5,59.3,29.98,East,90,2.3,2.3,99,0.00,CLR,,0.33,WeatherDisplay:10.37,2013-01-09 03:46:00,
2013-01-08 21:51:00,59.7,59.4,29.99,SW,225,1.1,0.0,99,0.00,CLR,,0.33,WeatherDisplay:10.37,2013-01-09 03:51:00,
2013-01-08 21:56:00,59.7,59.4,29.99,SE,135,1.1,0.0,99,0.00,CLR,,0.33,WeatherDisplay:10.37,2013-01-09 03:56:00,
2013-01-08 22:00:00,64.0,63.8,30.04,ENE,68,0.0,1.0,99,0.01,CL,CL,0.00,WeatherDisplay:10.37,2013-01-09 04:00:00,
2013-01-08 22:01:00,59.7,59.4,29.99,NW,315,1.1,0.0,99,0.00,CLR,,0.33,WeatherDisplay:10.37,2013-01-09 04:01:00,
2013-01-08 22:06:00,59.7,59.4,29.99,NW,315,1.1,0.0,99,0.00,CLR,,0.33,WeatherDisplay:10.37,2013-01-09 04:06:00,
2013-01-08 22:11:00,59.7,59.4,29.98,NE,45,2.3,0.0,99,0.01,RA,,0.34,WeatherDisplay:10.37,2013-01-09 04:11:00,
2013-01-08 22:16:00,59.9,59.6,29.97,NE,45,2.3,0.0,99,0.01,RA,,0.34,WeatherDisplay:10.37,2013-01-09 04:16:00,
2013-01-08 22:21:00,60.1,59.8,29.97,East,90,1.1,0.0,99,0.02,RA,,0.35,WeatherDisplay:10.37,2013-01-09 04:21:00,
2013-01-08 22:26:00,60.1,59.8,29.97,SE,135,3.5,0.0,99,0.04,RA,,0.37,WeatherDisplay:10.37,2013-01-09 04:26:00,
2013-01-08 22:31:00,60.1,59.8,29.95,NNW,338,2.3,2.3,99,0.04,RA,,0.37,WeatherDisplay:10.37,2013-01-09 04:31:00,
2013-01-08 22:36:00,60.1,59.8,29.94,East,90,3.5,3.5,99,0.04,,,0.37,WeatherDisplay:10.37,2013-01-09 04:36:00,
2013-01-08 22:41:00,60.3,60.0,29.94,SE,135,4.6,0.0,99,0.04,CLR,,0.38,WeatherDisplay:10.37,2013-01-09 04:41:00,
2013-01-08 22:46:00,60.3,60.0,29.95,NE,45,3.5,0.0,99,0.05,RA,,0.38,WeatherDisplay:10.37,2013-01-09 04:46:00,
2013-01-08 22:51:00,60.3,60.0,29.96,South,180,3.5,3.5,99,0.05,RA,,0.38,WeatherDisplay:10.37,2013-01-09 04:51:00,
2013-01-08 22:56:00,60.3,60.0,29.96,East,90,4.6,4.6,99,0.05,CLR,,0.38,WeatherDisplay:10.37,2013-01-09 04:56:00,
2013-01-08 23:00:00,60.4,60.2,29.95,East,90,3.5,0.0,99,0.05,CLR,,0.38,WeatherDisplay:10.37,2013-01-09 05:00:00,
2013-01-08 23:02:00,60.4,60.2,29.96,East,90,1.1,0.0,99,0.05,CLR,,0.38,WeatherDisplay:10.37,2013-01-09 05:02:00,
2013-01-08 23:03:00,60.4,60.2,29.95,East,90,1.1,0.0,99,0.05,CLR,,0.38,WeatherDisplay:10.37,2013-01-09 05:03:00,
2013-01-08 23:08:00,60.6,60.3,29.95,East,90,3.5,3.5,99,0.06,RA,,0.39,WeatherDisplay:10.37,2013-01-09 05:08:00,
2013-01-08 23:13:00,60.4,60.2,29.96,West,270,1.1,1.1,99,0.05,RA,,0.39,WeatherDisplay:10.37,2013-01-09 05:13:00,
2013-01-08 23:18:00,60.6,60.3,29.96,West,270,2.3,2.3,99,0.05,,,0.39,WeatherDisplay:10.37,2013-01-09 05:18:00,
2013-01-08 23:23:00,61.2,60.9,29.97,NW,315,2.3,0.0,99,0.04,CLR,,0.39,WeatherDisplay:10.37,2013-01-09 05:23:00,
2013-01-08 23:28:00,61.2,60.9,29.96,South,180,3.5,0.0,99,0.02,CLR,,0.39,WeatherDisplay:10.37,2013-01-09 05:28:00,
2013-01-08 23:33:00,61.2,60.9,29.96,SE,135,3.5,0.0,99,0.02,CLR,,0.39,WeatherDisplay:10.37,2013-01-09 05:33:00,
2013-01-08 23:38:00,61.2,60.9,29.97,North,0,3.5,3.5,99,0.02,CLR,,0.39,WeatherDisplay:10.37,2013-01-09 05:38:00,
2013-01-08 23:43:00,61.5,61.2,29.97,SE,135,5.8,5.8,99,0.01,CLR,,0.39,WeatherDisplay:10.37,2013-01-09 05:43:00,
2013-01-08 23:48:00,61.5,61.2,29.97,NE,45,1.1,0.0,99,0.01,CLR,,0.39,WeatherDisplay:10.37,2013-01-09 05:48:00,
2013-01-08 23:53:00,61.5,61.2,29.97,SW,225,3.5,0.0,99,0.01,CLR,,0.39,WeatherDisplay:10.37,2013-01-09 05:53:00,
2013-01-08 23:58:00,61.5,61.2,29.97,North,0,1.1,1.1,99,0.01,CLR,,0.39,WeatherDisplay:10.37,2013-01-09 05:58:00,